| Date | Time | Temp. (oF) | Dew Point (oF) | Rel. Hum. (%) | Press. (in.) | Wind Dir. | Wind Speed (mph) | Hourly Rainfall (in.) |
|
|---|---|---|---|---|---|---|---|---|---|
| 1 | 06/05 | 00:00 | 71 | 70 | 98 | 29.81 | WNW | 2 | 0.00 |
| 2 | 06/04 | 23:00 | 71 | 70 | 97 | 29.80 | NW | 0 | 0.00 |
| 3 | 06/04 | 22:00 | 71 | 69 | 95 | 29.79 | W | 1 | 0.00 |
| 4 | 06/04 | 21:00 | 71 | 68 | 92 | 29.80 | NNW | 0 | 0.00 |
| 5 | 06/04 | 20:00 | 71 | 67 | 90 | 29.78 | SSW | 4 | 0.00 |
| 6 | 06/04 | 19:00 | 72 | 67 | 87 | 29.79 | S | 4 | 0.22 |
| 7 | 06/04 | 18:00 | 78 | 70 | 79 | 29.78 | SW | 5 | 0.05 |
| 8 | 06/04 | 17:00 | 81 | 70 | 71 | 29.77 | SSW | 2 | 0.00 |
| 9 | 06/04 | 16:00 | 84 | 71 | 67 | 29.78 | S | 3 | 0.00 |
| 10 | 06/04 | 15:00 | 82 | 71 | 70 | 29.79 | SW | 6 | 0.00 |
| 11 | 06/04 | 14:00 | 85 | 69 | 60 | 29.81 | NW | 4 | 0.00 |
| 12 | 06/04 | 13:00 | 85 | 72 | 66 | 29.83 | SSW | 3 | 0.00 |
| 13 | 06/04 | 12:00 | 83 | 71 | 68 | 29.84 | S | 5 | 0.00 |
| 14 | 06/04 | 11:00 | 80 | 71 | 76 | 29.84 | SSW | 3 | 0.00 |
| 15 | 06/04 | 10:00 | 78 | 72 | 83 | 29.84 | NW | 1 | 0.00 |
| 16 | 06/04 | 09:00 | 76 | 74 | 95 | 29.84 | NW | 1 | 0.00 |
| 17 | 06/04 | 08:00 | 70 | 69 | 100 | 29.83 | NNE | 0 | 0.00 |
| 18 | 06/04 | 07:00 | 67 | 67 | 100 | 29.82 | ENE | 0 | 0.00 |
| 19 | 06/04 | 06:00 | 66 | 66 | 100 | 29.81 | ENE | 0 | 0.00 |
| 20 | 06/04 | 05:00 | 66 | 66 | 100 | 29.79 | ENE | 0 | 0.00 |
| 21 | 06/04 | 04:00 | 66 | 66 | 100 | 29.78 | ENE | 0 | 0.00 |
| 22 | 06/04 | 03:00 | 66 | 66 | 100 | 29.77 | ENE | 0 | 0.00 |
| 23 | 06/04 | 02:00 | 67 | 67 | 100 | 29.77 | ENE | 0 | 0.00 |
| 24 | 06/04 | 01:00 | 67 | 67 | 100 | 29.77 | WSW | 0 | 0.00 |